Terminal Aerodrome Forecast
Issued by NWS

Home | Current Version | Previous Version | Text Only | Print | Product List | Glossary On
Versions: 1 2 3 4 5 6 7 8 9 10 11 12 13 14 15 16 17 18 19 20 21 22
000
FTUS45 KGJT 300531
TAFASE
TAF
KASE 300531Z 3006/3106 19004KT P6SM SCT060 OVC100
     FM301000 20003KT P6SM VCSH SCT050 BKN080
     FM301800 33004KT P6SM VCSH SCT035 OVC060
     FM302000 35005KT 2SM -SN BR OVC015
     FM310100 17003KT 2SM -SN BR OVC015=

USA.gov is the U.S. government's official web portal to all federal, state and local government web resources and services.